sensor_id;sensor_type;location;lat;lon;timestamp;pressure;altitude;pressure_sealevel;temperature
16956;BMP180;8594;52.052;8.354;2023-05-07T00:00:41;100758.00;;;16.30
16956;BMP180;8594;52.052;8.354;2023-05-07T00:03:08;100758.00;;;16.20
16956;BMP180;8594;52.052;8.354;2023-05-07T00:05:34;100754.00;;;16.20
16956;BMP180;8594;52.052;8.354;2023-05-07T00:08:01;100762.00;;;16.30
16956;BMP180;8594;52.052;8.354;2023-05-07T00:10:29;100763.00;;;16.40
16956;BMP180;8594;52.052;8.354;2023-05-07T00:12:56;100769.00;;;16.20
16956;BMP180;8594;52.052;8.354;2023-05-07T00:15:23;100769.00;;;15.90
16956;BMP180;8594;52.052;8.354;2023-05-07T00:17:50;100765.00;;;16.00
16956;BMP180;8594;52.052;8.354;2023-05-07T00:20:16;100774.00;;;16.10
16956;BMP180;8594;52.052;8.354;2023-05-07T00:22:43;100772.00;;;15.80
16956;BMP180;8594;52.052;8.354;2023-05-07T00:25:10;100768.00;;;16.20
16956;BMP180;8594;52.052;8.354;2023-05-07T00:27:38;100764.00;;;15.90
16956;BMP180;8594;52.052;8.354;2023-05-07T00:30:06;100772.00;;;16.10
16956;BMP180;8594;52.052;8.354;2023-05-07T00:32:33;100768.00;;;15.90
16956;BMP180;8594;52.052;8.354;2023-05-07T00:35:00;100777.00;;;16.20
16956;BMP180;8594;52.052;8.354;2023-05-07T00:37:27;100770.00;;;16.10
16956;BMP180;8594;52.052;8.354;2023-05-07T00:39:54;100769.00;;;16.10
16956;BMP180;8594;52.052;8.354;2023-05-07T00:42:21;100775.00;;;16.10
16956;BMP180;8594;52.052;8.354;2023-05-07T00:44:49;100774.00;;;15.90
16956;BMP180;8594;52.052;8.354;2023-05-07T00:47:16;100766.00;;;16.20
16956;BMP180;8594;52.052;8.354;2023-05-07T00:49:44;100773.00;;;16.30
16956;BMP180;8594;52.052;8.354;2023-05-07T00:52:14;100771.00;;;16.40
16956;BMP180;8594;52.052;8.354;2023-05-07T00:54:42;100780.00;;;16.00
16956;BMP180;8594;52.052;8.354;2023-05-07T00:57:10;100778.00;;;16.00
16956;BMP180;8594;52.052;8.354;2023-05-07T00:59:38;100780.00;;;16.30
16956;BMP180;8594;52.052;8.354;2023-05-07T01:02:07;100784.00;;;16.10
16956;BMP180;8594;52.052;8.354;2023-05-07T01:04:34;100781.00;;;15.90
16956;BMP180;8594;52.052;8.354;2023-05-07T01:07:02;100782.00;;;16.20
16956;BMP180;8594;52.052;8.354;2023-05-07T01:09:29;100787.00;;;16.10
16956;BMP180;8594;52.052;8.354;2023-05-07T01:11:57;100789.00;;;16.00
16956;BMP180;8594;52.052;8.354;2023-05-07T01:14:25;100788.00;;;16.00
16956;BMP180;8594;52.052;8.354;2023-05-07T01:16:52;100792.00;;;15.90
16956;BMP180;8594;52.052;8.354;2023-05-07T01:19:20;100785.00;;;15.70
16956;BMP180;8594;52.052;8.354;2023-05-07T01:21:48;100785.00;;;16.10
16956;BMP180;8594;52.052;8.354;2023-05-07T01:24:17;100779.00;;;15.80
16956;BMP180;8594;52.052;8.354;2023-05-07T01:26:44;100788.00;;;15.80
16956;BMP180;8594;52.052;8.354;2023-05-07T01:29:11;100776.00;;;15.70
16956;BMP180;8594;52.052;8.354;2023-05-07T01:31:40;100782.00;;;15.80
16956;BMP180;8594;52.052;8.354;2023-05-07T01:34:10;100780.00;;;15.70
16956;BMP180;8594;52.052;8.354;2023-05-07T01:36:39;100770.00;;;15.80
16956;BMP180;8594;52.052;8.354;2023-05-07T01:39:08;100769.00;;;15.60
16956;BMP180;8594;52.052;8.354;2023-05-07T01:41:37;100762.00;;;15.80
16956;BMP180;8594;52.052;8.354;2023-05-07T01:44:05;100760.00;;;15.50
16956;BMP180;8594;52.052;8.354;2023-05-07T01:46:33;100757.00;;;15.20
16956;BMP180;8594;52.052;8.354;2023-05-07T01:49:00;100768.00;;;15.30
16956;BMP180;8594;52.052;8.354;2023-05-07T01:51:27;100768.00;;;15.50
16956;BMP180;8594;52.052;8.354;2023-05-07T01:53:54;100776.00;;;15.50
16956;BMP180;8594;52.052;8.354;2023-05-07T01:56:21;100777.00;;;15.30
16956;BMP180;8594;52.052;8.354;2023-05-07T01:58:50;100767.00;;;15.30
16956;BMP180;8594;52.052;8.354;2023-05-07T02:01:17;100773.00;;;15.20
16956;BMP180;8594;52.052;8.354;2023-05-07T02:03:44;100775.00;;;15.30
16956;BMP180;8594;52.052;8.354;2023-05-07T02:06:11;100775.00;;;15.10
16956;BMP180;8594;52.052;8.354;2023-05-07T02:08:38;100770.00;;;15.00
16956;BMP180;8594;52.052;8.354;2023-05-07T02:11:05;100775.00;;;15.30
16956;BMP180;8594;52.052;8.354;2023-05-07T02:13:33;100784.00;;;15.50
16956;BMP180;8594;52.052;8.354;2023-05-07T02:16:01;100777.00;;;15.60
16956;BMP180;8594;52.052;8.354;2023-05-07T02:18:29;100781.00;;;15.50
16956;BMP180;8594;52.052;8.354;2023-05-07T02:20:56;100782.00;;;15.50
16956;BMP180;8594;52.052;8.354;2023-05-07T02:23:22;100785.00;;;15.50
16956;BMP180;8594;52.052;8.354;2023-05-07T02:25:51;100786.00;;;15.70
16956;BMP180;8594;52.052;8.354;2023-05-07T02:28:17;100784.00;;;15.50
16956;BMP180;8594;52.052;8.354;2023-05-07T02:30:44;100782.00;;;15.40
16956;BMP180;8594;52.052;8.354;2023-05-07T02:33:12;100784.00;;;15.20
16956;BMP180;8594;52.052;8.354;2023-05-07T02:35:39;100782.00;;;15.40
16956;BMP180;8594;52.052;8.354;2023-05-07T02:38:06;100775.00;;;15.30
16956;BMP180;8594;52.052;8.354;2023-05-07T02:40:36;100768.00;;;14.90
16956;BMP180;8594;52.052;8.354;2023-05-07T02:43:04;100772.00;;;15.10
16956;BMP180;8594;52.052;8.354;2023-05-07T02:45:31;100780.00;;;15.00
16956;BMP180;8594;52.052;8.354;2023-05-07T02:47:58;100778.00;;;15.00
16956;BMP180;8594;52.052;8.354;2023-05-07T02:50:27;100779.00;;;15.20
16956;BMP180;8594;52.052;8.354;2023-05-07T02:52:54;100778.00;;;15.10
16956;BMP180;8594;52.052;8.354;2023-05-07T02:55:21;100777.00;;;15.30
16956;BMP180;8594;52.052;8.354;2023-05-07T02:57:47;100777.00;;;15.40
16956;BMP180;8594;52.052;8.354;2023-05-07T03:00:17;100781.00;;;15.30
16956;BMP180;8594;52.052;8.354;2023-05-07T03:02:44;100782.00;;;15.40
16956;BMP180;8594;52.052;8.354;2023-05-07T03:05:11;100785.00;;;15.40
16956;BMP180;8594;52.052;8.354;2023-05-07T03:07:39;100790.00;;;15.40
16956;BMP180;8594;52.052;8.354;2023-05-07T03:10:07;100781.00;;;15.50
16956;BMP180;8594;52.052;8.354;2023-05-07T03:12:34;100777.00;;;15.20
16956;BMP180;8594;52.052;8.354;2023-05-07T03:15:01;100785.00;;;15.00
16956;BMP180;8594;52.052;8.354;2023-05-07T03:17:28;100776.00;;;15.00
16956;BMP180;8594;52.052;8.354;2023-05-07T03:19:55;100786.00;;;15.10
16956;BMP180;8594;52.052;8.354;2023-05-07T03:22:21;100781.00;;;15.00
16956;BMP180;8594;52.052;8.354;2023-05-07T03:24:49;100783.00;;;14.90
16956;BMP180;8594;52.052;8.354;2023-05-07T03:27:16;100773.00;;;15.00
16956;BMP180;8594;52.052;8.354;2023-05-07T03:29:43;100773.00;;;14.90
16956;BMP180;8594;52.052;8.354;2023-05-07T03:32:10;100777.00;;;14.90
16956;BMP180;8594;52.052;8.354;2023-05-07T03:34:37;100769.00;;;15.00
16956;BMP180;8594;52.052;8.354;2023-05-07T03:37:03;100752.00;;;15.00
16956;BMP180;8594;52.052;8.354;2023-05-07T03:39:30;100761.00;;;14.40
16956;BMP180;8594;52.052;8.354;2023-05-07T03:41:58;100755.00;;;14.70
16956;BMP180;8594;52.052;8.354;2023-05-07T03:44:26;100760.00;;;14.70
16956;BMP180;8594;52.052;8.354;2023-05-07T03:46:53;100759.00;;;14.60
16956;BMP180;8594;52.052;8.354;2023-05-07T03:49:19;100775.00;;;14.50
16956;BMP180;8594;52.052;8.354;2023-05-07T03:51:46;100780.00;;;14.90
16956;BMP180;8594;52.052;8.354;2023-05-07T03:54:13;100778.00;;;14.80
16956;BMP180;8594;52.052;8.354;2023-05-07T03:56:40;100772.00;;;14.80
16956;BMP180;8594;52.052;8.354;2023-05-07T03:59:08;100782.00;;;14.80
16956;BMP180;8594;52.052;8.354;2023-05-07T04:01:35;100786.00;;;14.80
16956;BMP180;8594;52.052;8.354;2023-05-07T04:04:01;100785.00;;;15.00
16956;BMP180;8594;52.052;8.354;2023-05-07T04:06:28;100796.00;;;14.70
16956;BMP180;8594;52.052;8.354;2023-05-07T04:08:55;100794.00;;;14.60
16956;BMP180;8594;52.052;8.354;2023-05-07T04:11:22;100801.00;;;14.60
16956;BMP180;8594;52.052;8.354;2023-05-07T04:13:49;100802.00;;;14.70
16956;BMP180;8594;52.052;8.354;2023-05-07T04:16:17;100810.00;;;14.60
16956;BMP180;8594;52.052;8.354;2023-05-07T04:18:44;100801.00;;;14.40
16956;BMP180;8594;52.052;8.354;2023-05-07T04:21:15;100801.00;;;14.60
16956;BMP180;8594;52.052;8.354;2023-05-07T04:23:42;100805.00;;;14.70
16956;BMP180;8594;52.052;8.354;2023-05-07T04:26:09;100812.00;;;14.50
16956;BMP180;8594;52.052;8.354;2023-05-07T04:28:36;100817.00;;;14.60
16956;BMP180;8594;52.052;8.354;2023-05-07T04:31:03;100817.00;;;14.80
16956;BMP180;8594;52.052;8.354;2023-05-07T04:33:32;100818.00;;;14.60
16956;BMP180;8594;52.052;8.354;2023-05-07T04:36:01;100810.00;;;14.40
16956;BMP180;8594;52.052;8.354;2023-05-07T04:38:29;100816.00;;;14.70
16956;BMP180;8594;52.052;8.354;2023-05-07T04:40:57;100823.00;;;14.60
16956;BMP180;8594;52.052;8.354;2023-05-07T04:43:23;100819.00;;;14.40
16956;BMP180;8594;52.052;8.354;2023-05-07T04:45:50;100824.00;;;14.40
16956;BMP180;8594;52.052;8.354;2023-05-07T04:48:17;100819.00;;;14.40
16956;BMP180;8594;52.052;8.354;2023-05-07T04:50:48;100817.00;;;14.40
16956;BMP180;8594;52.052;8.354;2023-05-07T04:53:16;100815.00;;;14.10
16956;BMP180;8594;52.052;8.354;2023-05-07T04:55:43;100811.00;;;14.60
16956;BMP180;8594;52.052;8.354;2023-05-07T04:58:10;100806.00;;;14.70
16956;BMP180;8594;52.052;8.354;2023-05-07T05:00:38;100819.00;;;14.20
16956;BMP180;8594;52.052;8.354;2023-05-07T05:03:06;100810.00;;;14.30
16956;BMP180;8594;52.052;8.354;2023-05-07T05:05:33;100810.00;;;14.30
16956;BMP180;8594;52.052;8.354;2023-05-07T05:08:01;100814.00;;;14.50
16956;BMP180;8594;52.052;8.354;2023-05-07T05:10:28;100810.00;;;14.50
16956;BMP180;8594;52.052;8.354;2023-05-07T05:12:55;100820.00;;;14.70
16956;BMP180;8594;52.052;8.354;2023-05-07T05:15:21;100812.00;;;14.80
16956;BMP180;8594;52.052;8.354;2023-05-07T05:17:49;100821.00;;;14.70
16956;BMP180;8594;52.052;8.354;2023-05-07T05:20:15;100822.00;;;14.60
16956;BMP180;8594;52.052;8.354;2023-05-07T05:22:42;100826.00;;;14.60
16956;BMP180;8594;52.052;8.354;2023-05-07T05:25:10;100821.00;;;14.80
16956;BMP180;8594;52.052;8.354;2023-05-07T05:27:37;100824.00;;;14.50
16956;BMP180;8594;52.052;8.354;2023-05-07T05:30:05;100826.00;;;14.60
16956;BMP180;8594;52.052;8.354;2023-05-07T05:32:32;100820.00;;;14.30
16956;BMP180;8594;52.052;8.354;2023-05-07T05:34:59;100822.00;;;14.40
16956;BMP180;8594;52.052;8.354;2023-05-07T05:37:26;100824.00;;;14.30
16956;BMP180;8594;52.052;8.354;2023-05-07T05:39:53;100828.00;;;14.50
16956;BMP180;8594;52.052;8.354;2023-05-07T05:42:22;100826.00;;;14.40
16956;BMP180;8594;52.052;8.354;2023-05-07T05:44:50;100826.00;;;14.70
16956;BMP180;8594;52.052;8.354;2023-05-07T05:47:17;100821.00;;;14.70
16956;BMP180;8594;52.052;8.354;2023-05-07T05:49:44;100829.00;;;14.80
16956;BMP180;8594;52.052;8.354;2023-05-07T05:52:12;100832.00;;;14.60
16956;BMP180;8594;52.052;8.354;2023-05-07T05:54:39;100845.00;;;14.50
16956;BMP180;8594;52.052;8.354;2023-05-07T05:57:07;100844.00;;;14.70
16956;BMP180;8594;52.052;8.354;2023-05-07T05:59:38;100844.00;;;14.90
16956;BMP180;8594;52.052;8.354;2023-05-07T06:02:04;100845.00;;;15.00
16956;BMP180;8594;52.052;8.354;2023-05-07T06:04:31;100847.00;;;15.00
16956;BMP180;8594;52.052;8.354;2023-05-07T06:06:58;100844.00;;;15.30
16956;BMP180;8594;52.052;8.354;2023-05-07T06:09:25;100844.00;;;15.10
16956;BMP180;8594;52.052;8.354;2023-05-07T06:11:52;100844.00;;;15.00
16956;BMP180;8594;52.052;8.354;2023-05-07T06:14:19;100847.00;;;15.30
16956;BMP180;8594;52.052;8.354;2023-05-07T06:16:47;100837.00;;;15.60
16956;BMP180;8594;52.052;8.354;2023-05-07T06:19:14;100844.00;;;15.90
16956;BMP180;8594;52.052;8.354;2023-05-07T06:21:43;100851.00;;;15.90
16956;BMP180;8594;52.052;8.354;2023-05-07T06:24:10;100850.00;;;15.60
16956;BMP180;8594;52.052;8.354;2023-05-07T06:26:37;100850.00;;;15.60
16956;BMP180;8594;52.052;8.354;2023-05-07T06:29:03;100855.00;;;15.90
16956;BMP180;8594;52.052;8.354;2023-05-07T06:31:30;100851.00;;;15.60
16956;BMP180;8594;52.052;8.354;2023-05-07T06:33:59;100866.00;;;15.70
16956;BMP180;8594;52.052;8.354;2023-05-07T06:36:27;100877.00;;;15.70
16956;BMP180;8594;52.052;8.354;2023-05-07T06:38:55;100865.00;;;15.80
16956;BMP180;8594;52.052;8.354;2023-05-07T06:41:21;100871.00;;;16.00
16956;BMP180;8594;52.052;8.354;2023-05-07T06:43:48;100876.00;;;15.50
16956;BMP180;8594;52.052;8.354;2023-05-07T06:46:15;100878.00;;;15.70
16956;BMP180;8594;52.052;8.354;2023-05-07T06:48:42;100875.00;;;15.70
16956;BMP180;8594;52.052;8.354;2023-05-07T06:51:10;100874.00;;;16.20
16956;BMP180;8594;52.052;8.354;2023-05-07T06:53:37;100877.00;;;15.90
16956;BMP180;8594;52.052;8.354;2023-05-07T06:56:04;100887.00;;;16.10
16956;BMP180;8594;52.052;8.354;2023-05-07T06:58:32;100891.00;;;16.50
16956;BMP180;8594;52.052;8.354;2023-05-07T07:00:58;100894.00;;;16.60
16956;BMP180;8594;52.052;8.354;2023-05-07T07:03:25;100889.00;;;16.80
16956;BMP180;8594;52.052;8.354;2023-05-07T07:05:52;100880.00;;;16.60
16956;BMP180;8594;52.052;8.354;2023-05-07T07:08:22;100879.00;;;16.80
16956;BMP180;8594;52.052;8.354;2023-05-07T07:10:49;100888.00;;;17.20
16956;BMP180;8594;52.052;8.354;2023-05-07T07:13:16;100893.00;;;17.00
16956;BMP180;8594;52.052;8.354;2023-05-07T07:15:43;100899.00;;;17.10
16956;BMP180;8594;52.052;8.354;2023-05-07T07:18:10;100890.00;;;17.40
16956;BMP180;8594;52.052;8.354;2023-05-07T07:20:37;100896.00;;;17.20
16956;BMP180;8594;52.052;8.354;2023-05-07T07:23:04;100901.00;;;16.70
16956;BMP180;8594;52.052;8.354;2023-05-07T07:25:32;100903.00;;;16.90
16956;BMP180;8594;52.052;8.354;2023-05-07T07:27:59;100901.00;;;16.90
16956;BMP180;8594;52.052;8.354;2023-05-07T07:30:25;100903.00;;;16.70
16956;BMP180;8594;52.052;8.354;2023-05-07T07:32:52;100910.00;;;16.50
16956;BMP180;8594;52.052;8.354;2023-05-07T07:35:19;100908.00;;;16.20
16956;BMP180;8594;52.052;8.354;2023-05-07T07:37:47;100899.00;;;16.30
16956;BMP180;8594;52.052;8.354;2023-05-07T07:40:16;100900.00;;;16.30
16956;BMP180;8594;52.052;8.354;2023-05-07T07:42:44;100899.00;;;16.20
16956;BMP180;8594;52.052;8.354;2023-05-07T07:45:11;100893.00;;;16.70
16956;BMP180;8594;52.052;8.354;2023-05-07T07:47:38;100892.00;;;17.10
16956;BMP180;8594;52.052;8.354;2023-05-07T07:50:07;100895.00;;;16.60
16956;BMP180;8594;52.052;8.354;2023-05-07T07:52:34;100893.00;;;16.90
16956;BMP180;8594;52.052;8.354;2023-05-07T07:55:01;100895.00;;;17.20
16956;BMP180;8594;52.052;8.354;2023-05-07T07:57:29;100899.00;;;17.10
16956;BMP180;8594;52.052;8.354;2023-05-07T07:59:57;100896.00;;;17.40
16956;BMP180;8594;52.052;8.354;2023-05-07T08:02:23;100891.00;;;17.10
16956;BMP180;8594;52.052;8.354;2023-05-07T08:04:50;100899.00;;;17.10
16956;BMP180;8594;52.052;8.354;2023-05-07T08:07:17;100893.00;;;17.30
16956;BMP180;8594;52.052;8.354;2023-05-07T08:09:46;100886.00;;;17.10
16956;BMP180;8594;52.052;8.354;2023-05-07T08:12:13;100890.00;;;17.40
16956;BMP180;8594;52.052;8.354;2023-05-07T08:14:40;100893.00;;;17.20
16956;BMP180;8594;52.052;8.354;2023-05-07T08:17:09;100896.00;;;17.20
16956;BMP180;8594;52.052;8.354;2023-05-07T08:19:36;100893.00;;;17.00
16956;BMP180;8594;52.052;8.354;2023-05-07T08:22:03;100904.00;;;17.00
16956;BMP180;8594;52.052;8.354;2023-05-07T08:24:31;100893.00;;;16.80
16956;BMP180;8594;52.052;8.354;2023-05-07T08:26:57;100903.00;;;17.30
16956;BMP180;8594;52.052;8.354;2023-05-07T08:29:24;100899.00;;;17.20
16956;BMP180;8594;52.052;8.354;2023-05-07T08:31:51;100897.00;;;17.10
16956;BMP180;8594;52.052;8.354;2023-05-07T08:34:20;100895.00;;;17.60
16956;BMP180;8594;52.052;8.354;2023-05-07T08:36:47;100895.00;;;17.30
16956;BMP180;8594;52.052;8.354;2023-05-07T08:39:15;100892.00;;;17.50
16956;BMP180;8594;52.052;8.354;2023-05-07T08:41:45;100898.00;;;17.20
16956;BMP180;8594;52.052;8.354;2023-05-07T08:44:13;100900.00;;;17.40
16956;BMP180;8594;52.052;8.354;2023-05-07T08:46:41;100902.00;;;17.30
16956;BMP180;8594;52.052;8.354;2023-05-07T08:49:09;100897.00;;;17.50
16956;BMP180;8594;52.052;8.354;2023-05-07T08:51:37;100891.00;;;17.10
16956;BMP180;8594;52.052;8.354;2023-05-07T08:54:05;100906.00;;;17.60
16956;BMP180;8594;52.052;8.354;2023-05-07T08:56:32;100902.00;;;17.90
16956;BMP180;8594;52.052;8.354;2023-05-07T08:58:59;100907.00;;;17.80
16956;BMP180;8594;52.052;8.354;2023-05-07T09:01:26;100911.00;;;17.80
16956;BMP180;8594;52.052;8.354;2023-05-07T09:03:53;100911.00;;;18.10
16956;BMP180;8594;52.052;8.354;2023-05-07T09:06:21;100912.00;;;18.30
16956;BMP180;8594;52.052;8.354;2023-05-07T09:08:54;100913.00;;;18.30
16956;BMP180;8594;52.052;8.354;2023-05-07T09:11:21;100913.00;;;18.10
16956;BMP180;8594;52.052;8.354;2023-05-07T09:13:53;100906.00;;;18.00
16956;BMP180;8594;52.052;8.354;2023-05-07T09:16:21;100920.00;;;17.80
16956;BMP180;8594;52.052;8.354;2023-05-07T09:18:51;100912.00;;;18.30
16956;BMP180;8594;52.052;8.354;2023-05-07T09:21:20;100906.00;;;18.00
16956;BMP180;8594;52.052;8.354;2023-05-07T09:23:51;100911.00;;;18.10
16956;BMP180;8594;52.052;8.354;2023-05-07T09:26:21;100904.00;;;18.60
16956;BMP180;8594;52.052;8.354;2023-05-07T09:28:48;100902.00;;;18.60
16956;BMP180;8594;52.052;8.354;2023-05-07T09:31:14;100910.00;;;18.50
16956;BMP180;8594;52.052;8.354;2023-05-07T09:33:41;100905.00;;;18.90
16956;BMP180;8594;52.052;8.354;2023-05-07T09:36:09;100906.00;;;18.90
16956;BMP180;8594;52.052;8.354;2023-05-07T09:38:37;100916.00;;;19.00
16956;BMP180;8594;52.052;8.354;2023-05-07T09:41:08;100910.00;;;19.10
16956;BMP180;8594;52.052;8.354;2023-05-07T09:43:37;100911.00;;;19.60
16956;BMP180;8594;52.052;8.354;2023-05-07T09:46:07;100912.00;;;20.20
16956;BMP180;8594;52.052;8.354;2023-05-07T09:48:39;100907.00;;;20.10
16956;BMP180;8594;52.052;8.354;2023-05-07T09:51:17;100907.00;;;20.20
16956;BMP180;8594;52.052;8.354;2023-05-07T09:53:45;100906.00;;;20.40
16956;BMP180;8594;52.052;8.354;2023-05-07T09:56:15;100897.00;;;20.30
16956;BMP180;8594;52.052;8.354;2023-05-07T09:58:44;100907.00;;;20.20
16956;BMP180;8594;52.052;8.354;2023-05-07T10:01:12;100897.00;;;20.00
16956;BMP180;8594;52.052;8.354;2023-05-07T10:03:41;100903.00;;;20.30
16956;BMP180;8594;52.052;8.354;2023-05-07T10:06:09;100908.00;;;20.50
16956;BMP180;8594;52.052;8.354;2023-05-07T10:08:37;100915.00;;;20.40
16956;BMP180;8594;52.052;8.354;2023-05-07T10:11:05;100910.00;;;20.50
16956;BMP180;8594;52.052;8.354;2023-05-07T10:13:33;100911.00;;;20.80
16956;BMP180;8594;52.052;8.354;2023-05-07T10:16:04;100920.00;;;20.60
16956;BMP180;8594;52.052;8.354;2023-05-07T10:18:32;100919.00;;;20.60
16956;BMP180;8594;52.052;8.354;2023-05-07T10:21:06;100911.00;;;20.60
16956;BMP180;8594;52.052;8.354;2023-05-07T10:23:35;100917.00;;;20.20
16956;BMP180;8594;52.052;8.354;2023-05-07T10:26:06;100922.00;;;20.40
16956;BMP180;8594;52.052;8.354;2023-05-07T10:28:40;100917.00;;;20.70
16956;BMP180;8594;52.052;8.354;2023-05-07T10:31:28;100913.00;;;20.80
16956;BMP180;8594;52.052;8.354;2023-05-07T10:34:00;100913.00;;;20.70
16956;BMP180;8594;52.052;8.354;2023-05-07T10:36:29;100914.00;;;20.80
16956;BMP180;8594;52.052;8.354;2023-05-07T10:38:56;100921.00;;;21.70
16956;BMP180;8594;52.052;8.354;2023-05-07T10:41:23;100927.00;;;21.20
16956;BMP180;8594;52.052;8.354;2023-05-07T10:43:51;100926.00;;;21.70
16956;BMP180;8594;52.052;8.354;2023-05-07T10:46:20;100927.00;;;22.20
16956;BMP180;8594;52.052;8.354;2023-05-07T10:49:11;100930.00;;;21.70
16956;BMP180;8594;52.052;8.354;2023-05-07T10:51:38;100911.00;;;21.00
16956;BMP180;8594;52.052;8.354;2023-05-07T10:54:22;100933.00;;;20.80
16956;BMP180;8594;52.052;8.354;2023-05-07T10:56:50;100930.00;;;21.50
16956;BMP180;8594;52.052;8.354;2023-05-07T10:59:37;100936.00;;;21.10
16956;BMP180;8594;52.052;8.354;2023-05-07T11:02:08;100931.00;;;21.40
16956;BMP180;8594;52.052;8.354;2023-05-07T11:04:38;100926.00;;;21.60
16956;BMP180;8594;52.052;8.354;2023-05-07T11:07:25;100923.00;;;21.80
16956;BMP180;8594;52.052;8.354;2023-05-07T11:10:03;100927.00;;;21.90
16956;BMP180;8594;52.052;8.354;2023-05-07T11:12:52;100924.00;;;21.60
16956;BMP180;8594;52.052;8.354;2023-05-07T11:15:41;100927.00;;;22.30
16956;BMP180;8594;52.052;8.354;2023-05-07T11:18:09;100926.00;;;21.60
16956;BMP180;8594;52.052;8.354;2023-05-07T11:21:02;100924.00;;;21.80
16956;BMP180;8594;52.052;8.354;2023-05-07T11:23:55;100924.00;;;21.60
16956;BMP180;8594;52.052;8.354;2023-05-07T11:26:24;100924.00;;;21.10
16956;BMP180;8594;52.052;8.354;2023-05-07T11:28:51;100931.00;;;21.50
16956;BMP180;8594;52.052;8.354;2023-05-07T11:31:24;100918.00;;;21.90
16956;BMP180;8594;52.052;8.354;2023-05-07T11:33:53;100917.00;;;21.40
16956;BMP180;8594;52.052;8.354;2023-05-07T11:36:23;100925.00;;;21.70
16956;BMP180;8594;52.052;8.354;2023-05-07T11:38:50;100918.00;;;21.70
16956;BMP180;8594;52.052;8.354;2023-05-07T11:41:17;100920.00;;;22.30
16956;BMP180;8594;52.052;8.354;2023-05-07T11:43:57;100916.00;;;21.60
16956;BMP180;8594;52.052;8.354;2023-05-07T11:46:28;100914.00;;;21.60
16956;BMP180;8594;52.052;8.354;2023-05-07T11:48:55;100925.00;;;21.60
16956;BMP180;8594;52.052;8.354;2023-05-07T11:51:24;100918.00;;;21.80
16956;BMP180;8594;52.052;8.354;2023-05-07T11:53:53;100920.00;;;21.80
16956;BMP180;8594;52.052;8.354;2023-05-07T11:56:20;100908.00;;;21.90
16956;BMP180;8594;52.052;8.354;2023-05-07T11:58:48;100911.00;;;22.20
16956;BMP180;8594;52.052;8.354;2023-05-07T12:01:16;100916.00;;;22.20
16956;BMP180;8594;52.052;8.354;2023-05-07T12:03:45;100923.00;;;22.20
16956;BMP180;8594;52.052;8.354;2023-05-07T12:06:15;100905.00;;;21.50
16956;BMP180;8594;52.052;8.354;2023-05-07T12:08:43;100923.00;;;21.30
16956;BMP180;8594;52.052;8.354;2023-05-07T12:11:14;100923.00;;;21.40
16956;BMP180;8594;52.052;8.354;2023-05-07T12:13:43;100919.00;;;21.60
16956;BMP180;8594;52.052;8.354;2023-05-07T12:16:10;100915.00;;;21.60
16956;BMP180;8594;52.052;8.354;2023-05-07T12:18:38;100917.00;;;21.70
16956;BMP180;8594;52.052;8.354;2023-05-07T12:21:10;100924.00;;;21.30
16956;BMP180;8594;52.052;8.354;2023-05-07T12:23:45;100920.00;;;21.20
16956;BMP180;8594;52.052;8.354;2023-05-07T12:26:13;100906.00;;;21.10
16956;BMP180;8594;52.052;8.354;2023-05-07T12:28:47;100925.00;;;21.50
16956;BMP180;8594;52.052;8.354;2023-05-07T12:31:16;100916.00;;;22.10
16956;BMP180;8594;52.052;8.354;2023-05-07T12:33:43;100927.00;;;22.00
16956;BMP180;8594;52.052;8.354;2023-05-07T12:36:13;100931.00;;;22.00
16956;BMP180;8594;52.052;8.354;2023-05-07T12:38:40;100939.00;;;21.60
16956;BMP180;8594;52.052;8.354;2023-05-07T12:41:09;100936.00;;;21.60
16956;BMP180;8594;52.052;8.354;2023-05-07T12:43:37;100937.00;;;21.80
16956;BMP180;8594;52.052;8.354;2023-05-07T12:46:07;100942.00;;;21.60
16956;BMP180;8594;52.052;8.354;2023-05-07T12:48:36;100935.00;;;22.10
16956;BMP180;8594;52.052;8.354;2023-05-07T12:51:05;100939.00;;;21.30
16956;BMP180;8594;52.052;8.354;2023-05-07T12:53:33;100947.00;;;21.30
16956;BMP180;8594;52.052;8.354;2023-05-07T12:56:02;100940.00;;;21.20
16956;BMP180;8594;52.052;8.354;2023-05-07T12:58:34;100944.00;;;21.80
16956;BMP180;8594;52.052;8.354;2023-05-07T13:01:05;100938.00;;;21.50
16956;BMP180;8594;52.052;8.354;2023-05-07T13:03:34;100937.00;;;21.50
16956;BMP180;8594;52.052;8.354;2023-05-07T13:06:05;100943.00;;;21.60
16956;BMP180;8594;52.052;8.354;2023-05-07T13:08:39;100946.00;;;21.30
16956;BMP180;8594;52.052;8.354;2023-05-07T13:11:10;100951.00;;;21.20
16956;BMP180;8594;52.052;8.354;2023-05-07T13:13:39;100954.00;;;21.30
16956;BMP180;8594;52.052;8.354;2023-05-07T13:16:08;100961.00;;;21.50
16956;BMP180;8594;52.052;8.354;2023-05-07T13:18:36;100954.00;;;21.40
16956;BMP180;8594;52.052;8.354;2023-05-07T13:21:03;100953.00;;;21.60
16956;BMP180;8594;52.052;8.354;2023-05-07T13:23:30;100955.00;;;22.20
16956;BMP180;8594;52.052;8.354;2023-05-07T13:25:58;100955.00;;;21.50
16956;BMP180;8594;52.052;8.354;2023-05-07T13:28:25;100954.00;;;21.50
16956;BMP180;8594;52.052;8.354;2023-05-07T13:30:53;100955.00;;;21.50
16956;BMP180;8594;52.052;8.354;2023-05-07T13:33:20;100953.00;;;21.10
16956;BMP180;8594;52.052;8.354;2023-05-07T13:35:47;100950.00;;;21.20
16956;BMP180;8594;52.052;8.354;2023-05-07T13:38:14;100946.00;;;21.60
16956;BMP180;8594;52.052;8.354;2023-05-07T13:40:41;100949.00;;;21.30
16956;BMP180;8594;52.052;8.354;2023-05-07T13:43:09;100951.00;;;21.60
16956;BMP180;8594;52.052;8.354;2023-05-07T13:45:36;100950.00;;;21.20
16956;BMP180;8594;52.052;8.354;2023-05-07T13:48:03;100943.00;;;20.90
16956;BMP180;8594;52.052;8.354;2023-05-07T13:50:30;100948.00;;;20.90
16956;BMP180;8594;52.052;8.354;2023-05-07T13:52:57;100951.00;;;20.70
16956;BMP180;8594;52.052;8.354;2023-05-07T13:55:25;100945.00;;;20.80
16956;BMP180;8594;52.052;8.354;2023-05-07T13:57:56;100942.00;;;20.80
16956;BMP180;8594;52.052;8.354;2023-05-07T14:00:25;100933.00;;;20.60
16956;BMP180;8594;52.052;8.354;2023-05-07T14:02:52;100933.00;;;20.40
16956;BMP180;8594;52.052;8.354;2023-05-07T14:05:19;100936.00;;;20.70
16956;BMP180;8594;52.052;8.354;2023-05-07T14:07:48;100950.00;;;20.60
16956;BMP180;8594;52.052;8.354;2023-05-07T14:10:17;100935.00;;;21.00
16956;BMP180;8594;52.052;8.354;2023-05-07T14:12:45;100940.00;;;20.60
16956;BMP180;8594;52.052;8.354;2023-05-07T14:15:12;100941.00;;;20.60